sensor_id;sensor_type;location;lat;lon;timestamp;temperature;humidity
13707;DHT22;6925;47.816;13.072;2024-01-06T00:01:22;6.60;72.80
13707;DHT22;6925;47.816;13.072;2024-01-06T00:03:49;6.50;72.50
13707;DHT22;6925;47.816;13.072;2024-01-06T00:06:16;6.60;72.70
13707;DHT22;6925;47.816;13.072;2024-01-06T00:08:43;6.60;73.30
13707;DHT22;6925;47.816;13.072;2024-01-06T00:11:10;6.60;73.20
13707;DHT22;6925;47.816;13.072;2024-01-06T00:13:37;6.60;73.10
13707;DHT22;6925;47.816;13.072;2024-01-06T00:16:06;6.50;72.70
13707;DHT22;6925;47.816;13.072;2024-01-06T00:18:33;6.50;73.20
13707;DHT22;6925;47.816;13.072;2024-01-06T00:21:00;6.50;73.20
13707;DHT22;6925;47.816;13.072;2024-01-06T00:23:27;6.50;72.80
13707;DHT22;6925;47.816;13.072;2024-01-06T00:25:54;6.50;73.30
13707;DHT22;6925;47.816;13.072;2024-01-06T00:28:21;6.50;73.60
13707;DHT22;6925;47.816;13.072;2024-01-06T00:30:48;6.50;74.30
13707;DHT22;6925;47.816;13.072;2024-01-06T00:33:17;6.50;74.10
13707;DHT22;6925;47.816;13.072;2024-01-06T00:35:44;6.50;74.80
13707;DHT22;6925;47.816;13.072;2024-01-06T00:38:11;6.50;74.70
13707;DHT22;6925;47.816;13.072;2024-01-06T00:40:38;6.50;75.00
13707;DHT22;6925;47.816;13.072;2024-01-06T00:43:05;6.40;74.80
13707;DHT22;6925;47.816;13.072;2024-01-06T00:45:32;6.40;74.30
13707;DHT22;6925;47.816;13.072;2024-01-06T00:48:00;6.30;74.40
13707;DHT22;6925;47.816;13.072;2024-01-06T00:50:28;6.30;74.60
13707;DHT22;6925;47.816;13.072;2024-01-06T00:52:55;6.40;75.50
13707;DHT22;6925;47.816;13.072;2024-01-06T00:55:22;6.40;75.10
13707;DHT22;6925;47.816;13.072;2024-01-06T00:57:49;6.40;75.50
13707;DHT22;6925;47.816;13.072;2024-01-06T01:00:17;6.50;76.00
13707;DHT22;6925;47.816;13.072;2024-01-06T01:02:44;6.50;75.80
13707;DHT22;6925;47.816;13.072;2024-01-06T01:05:11;6.50;76.10
13707;DHT22;6925;47.816;13.072;2024-01-06T01:07:40;6.50;76.30
13707;DHT22;6925;47.816;13.072;2024-01-06T01:10:08;6.50;76.20
13707;DHT22;6925;47.816;13.072;2024-01-06T01:12:35;6.50;76.20
13707;DHT22;6925;47.816;13.072;2024-01-06T01:15:03;6.50;76.60
13707;DHT22;6925;47.816;13.072;2024-01-06T01:17:30;6.50;76.50
13707;DHT22;6925;47.816;13.072;2024-01-06T01:19:57;6.50;76.20
13707;DHT22;6925;47.816;13.072;2024-01-06T01:22:24;6.50;76.50
13707;DHT22;6925;47.816;13.072;2024-01-06T01:24:52;6.50;76.60
13707;DHT22;6925;47.816;13.072;2024-01-06T01:27:19;6.50;77.10
13707;DHT22;6925;47.816;13.072;2024-01-06T01:29:46;6.60;77.00
13707;DHT22;6925;47.816;13.072;2024-01-06T01:32:18;6.60;76.80
13707;DHT22;6925;47.816;13.072;2024-01-06T01:34:45;6.50;76.10
13707;DHT22;6925;47.816;13.072;2024-01-06T01:37:12;6.50;75.60
13707;DHT22;6925;47.816;13.072;2024-01-06T01:39:39;6.40;75.20
13707;DHT22;6925;47.816;13.072;2024-01-06T01:42:08;6.40;75.70
13707;DHT22;6925;47.816;13.072;2024-01-06T01:44:35;6.40;76.10
13707;DHT22;6925;47.816;13.072;2024-01-06T01:47:03;6.40;76.50
13707;DHT22;6925;47.816;13.072;2024-01-06T01:49:31;6.50;76.60
13707;DHT22;6925;47.816;13.072;2024-01-06T01:51:59;6.50;76.60
13707;DHT22;6925;47.816;13.072;2024-01-06T01:54:26;6.50;76.30
13707;DHT22;6925;47.816;13.072;2024-01-06T01:56:54;6.50;76.40
13707;DHT22;6925;47.816;13.072;2024-01-06T01:59:22;6.50;76.10
13707;DHT22;6925;47.816;13.072;2024-01-06T02:01:49;6.40;75.50
13707;DHT22;6925;47.816;13.072;2024-01-06T02:04:17;6.40;75.60
13707;DHT22;6925;47.816;13.072;2024-01-06T02:06:44;6.40;75.60
13707;DHT22;6925;47.816;13.072;2024-01-06T02:09:11;6.40;76.60
13707;DHT22;6925;47.816;13.072;2024-01-06T02:11:38;6.40;75.50
13707;DHT22;6925;47.816;13.072;2024-01-06T02:14:05;6.30;74.90
13707;DHT22;6925;47.816;13.072;2024-01-06T02:16:33;6.20;74.60
13707;DHT22;6925;47.816;13.072;2024-01-06T02:19:00;6.10;75.10
13707;DHT22;6925;47.816;13.072;2024-01-06T02:21:28;6.10;75.80
13707;DHT22;6925;47.816;13.072;2024-01-06T02:23:59;6.10;75.80
13707;DHT22;6925;47.816;13.072;2024-01-06T02:26:26;6.10;76.00
13707;DHT22;6925;47.816;13.072;2024-01-06T02:28:54;6.10;76.50
13707;DHT22;6925;47.816;13.072;2024-01-06T02:31:21;6.20;76.90
13707;DHT22;6925;47.816;13.072;2024-01-06T02:33:48;6.30;76.60
13707;DHT22;6925;47.816;13.072;2024-01-06T02:36:15;6.30;76.90
13707;DHT22;6925;47.816;13.072;2024-01-06T02:38:42;6.30;77.00
13707;DHT22;6925;47.816;13.072;2024-01-06T02:41:10;6.30;76.80
13707;DHT22;6925;47.816;13.072;2024-01-06T02:43:37;6.20;76.30
13707;DHT22;6925;47.816;13.072;2024-01-06T02:46:04;6.20;76.20
13707;DHT22;6925;47.816;13.072;2024-01-06T02:48:33;6.20;76.60
13707;DHT22;6925;47.816;13.072;2024-01-06T02:51:00;6.10;77.20
13707;DHT22;6925;47.816;13.072;2024-01-06T02:53:27;6.10;77.60
13707;DHT22;6925;47.816;13.072;2024-01-06T02:55:54;6.10;78.00
13707;DHT22;6925;47.816;13.072;2024-01-06T02:58:23;6.10;78.50
13707;DHT22;6925;47.816;13.072;2024-01-06T03:00:50;6.20;78.90
13707;DHT22;6925;47.816;13.072;2024-01-06T03:03:17;6.20;79.20
13707;DHT22;6925;47.816;13.072;2024-01-06T03:05:44;6.30;79.40
13707;DHT22;6925;47.816;13.072;2024-01-06T03:08:14;6.30;79.40
13707;DHT22;6925;47.816;13.072;2024-01-06T03:10:42;6.40;79.50
13707;DHT22;6925;47.816;13.072;2024-01-06T03:13:09;6.40;79.30
13707;DHT22;6925;47.816;13.072;2024-01-06T03:15:38;6.40;79.60
13707;DHT22;6925;47.816;13.072;2024-01-06T03:18:05;6.40;80.00
13707;DHT22;6925;47.816;13.072;2024-01-06T03:20:32;6.40;79.40
13707;DHT22;6925;47.816;13.072;2024-01-06T03:22:59;6.40;79.50
13707;DHT22;6925;47.816;13.072;2024-01-06T03:25:26;6.40;79.60
13707;DHT22;6925;47.816;13.072;2024-01-06T03:27:53;6.40;79.60
13707;DHT22;6925;47.816;13.072;2024-01-06T03:30:20;6.50;79.80
13707;DHT22;6925;47.816;13.072;2024-01-06T03:32:49;6.40;79.80
13707;DHT22;6925;47.816;13.072;2024-01-06T03:35:16;6.50;80.00
13707;DHT22;6925;47.816;13.072;2024-01-06T03:37:43;6.50;80.20
13707;DHT22;6925;47.816;13.072;2024-01-06T03:40:11;6.50;80.40
13707;DHT22;6925;47.816;13.072;2024-01-06T03:42:39;6.50;80.60
13707;DHT22;6925;47.816;13.072;2024-01-06T03:45:07;6.50;80.60
13707;DHT22;6925;47.816;13.072;2024-01-06T03:47:34;6.50;80.70
13707;DHT22;6925;47.816;13.072;2024-01-06T03:50:02;6.50;80.90
13707;DHT22;6925;47.816;13.072;2024-01-06T03:52:30;6.50;81.10
13707;DHT22;6925;47.816;13.072;2024-01-06T03:54:57;6.50;80.90
13707;DHT22;6925;47.816;13.072;2024-01-06T03:57:24;6.50;81.10
13707;DHT22;6925;47.816;13.072;2024-01-06T03:59:51;6.50;81.10
13707;DHT22;6925;47.816;13.072;2024-01-06T04:02:18;6.50;81.30
13707;DHT22;6925;47.816;13.072;2024-01-06T04:04:45;6.50;81.30
13707;DHT22;6925;47.816;13.072;2024-01-06T04:07:13;6.50;81.50
13707;DHT22;6925;47.816;13.072;2024-01-06T04:09:42;6.50;81.50
13707;DHT22;6925;47.816;13.072;2024-01-06T04:12:09;6.50;81.70
13707;DHT22;6925;47.816;13.072;2024-01-06T04:14:36;6.50;81.70
13707;DHT22;6925;47.816;13.072;2024-01-06T04:17:04;6.50;81.40
13707;DHT22;6925;47.816;13.072;2024-01-06T04:19:31;6.50;81.60
13707;DHT22;6925;47.816;13.072;2024-01-06T04:21:58;6.50;81.80
13707;DHT22;6925;47.816;13.072;2024-01-06T04:24:26;6.50;82.00
13707;DHT22;6925;47.816;13.072;2024-01-06T04:26:54;6.50;82.10
13707;DHT22;6925;47.816;13.072;2024-01-06T04:29:21;6.50;82.20
13707;DHT22;6925;47.816;13.072;2024-01-06T04:31:48;6.50;82.40
13707;DHT22;6925;47.816;13.072;2024-01-06T04:34:15;6.50;82.60
13707;DHT22;6925;47.816;13.072;2024-01-06T04:36:42;6.50;82.70
13707;DHT22;6925;47.816;13.072;2024-01-06T04:39:09;6.60;82.90
13707;DHT22;6925;47.816;13.072;2024-01-06T04:41:40;6.50;82.20
13707;DHT22;6925;47.816;13.072;2024-01-06T04:44:07;6.50;82.00
13707;DHT22;6925;47.816;13.072;2024-01-06T04:46:34;6.60;82.60
13707;DHT22;6925;47.816;13.072;2024-01-06T04:49:01;6.60;83.10
13707;DHT22;6925;47.816;13.072;2024-01-06T04:51:29;6.50;83.30
13707;DHT22;6925;47.816;13.072;2024-01-06T04:53:56;6.50;83.50
13707;DHT22;6925;47.816;13.072;2024-01-06T04:56:23;6.50;83.80
13707;DHT22;6925;47.816;13.072;2024-01-06T04:58:51;6.40;84.00
13707;DHT22;6925;47.816;13.072;2024-01-06T05:01:19;6.40;84.50
13707;DHT22;6925;47.816;13.072;2024-01-06T05:03:47;6.40;84.70
13707;DHT22;6925;47.816;13.072;2024-01-06T05:06:14;6.40;84.90
13707;DHT22;6925;47.816;13.072;2024-01-06T05:08:41;6.40;85.20
13707;DHT22;6925;47.816;13.072;2024-01-06T05:11:10;6.40;85.10
13707;DHT22;6925;47.816;13.072;2024-01-06T05:13:37;6.50;85.20
13707;DHT22;6925;47.816;13.072;2024-01-06T05:16:06;6.50;85.40
13707;DHT22;6925;47.816;13.072;2024-01-06T05:18:34;6.50;85.40
13707;DHT22;6925;47.816;13.072;2024-01-06T05:21:01;6.50;85.00
13707;DHT22;6925;47.816;13.072;2024-01-06T05:23:29;6.50;85.40
13707;DHT22;6925;47.816;13.072;2024-01-06T05:25:56;6.50;85.40
13707;DHT22;6925;47.816;13.072;2024-01-06T05:28:23;6.60;85.60
13707;DHT22;6925;47.816;13.072;2024-01-06T05:30:51;6.50;85.70
13707;DHT22;6925;47.816;13.072;2024-01-06T05:33:19;6.50;85.80
13707;DHT22;6925;47.816;13.072;2024-01-06T05:35:46;6.40;85.70
13707;DHT22;6925;47.816;13.072;2024-01-06T05:38:13;6.40;86.60
13707;DHT22;6925;47.816;13.072;2024-01-06T05:40:41;6.40;86.70
13707;DHT22;6925;47.816;13.072;2024-01-06T05:43:08;6.40;86.30
13707;DHT22;6925;47.816;13.072;2024-01-06T05:45:35;6.50;86.30
13707;DHT22;6925;47.816;13.072;2024-01-06T05:48:03;6.50;86.30
13707;DHT22;6925;47.816;13.072;2024-01-06T05:50:31;6.50;86.20
13707;DHT22;6925;47.816;13.072;2024-01-06T05:52:58;6.50;86.20
13707;DHT22;6925;47.816;13.072;2024-01-06T05:55:25;6.50;86.40
13707;DHT22;6925;47.816;13.072;2024-01-06T05:57:53;6.50;86.00
13707;DHT22;6925;47.816;13.072;2024-01-06T06:00:20;6.50;85.70
13707;DHT22;6925;47.816;13.072;2024-01-06T06:02:47;6.50;86.00
13707;DHT22;6925;47.816;13.072;2024-01-06T06:05:15;6.60;86.30
13707;DHT22;6925;47.816;13.072;2024-01-06T06:07:43;6.50;86.10
13707;DHT22;6925;47.816;13.072;2024-01-06T06:10:11;6.50;86.20
13707;DHT22;6925;47.816;13.072;2024-01-06T06:12:39;6.40;86.10
13707;DHT22;6925;47.816;13.072;2024-01-06T06:15:09;6.50;86.60
13707;DHT22;6925;47.816;13.072;2024-01-06T06:17:40;6.50;86.40
13707;DHT22;6925;47.816;13.072;2024-01-06T06:20:07;6.50;86.60
13707;DHT22;6925;47.816;13.072;2024-01-06T06:22:34;6.60;86.60
13707;DHT22;6925;47.816;13.072;2024-01-06T06:25:04;6.50;86.70
13707;DHT22;6925;47.816;13.072;2024-01-06T06:27:33;6.60;86.90
13707;DHT22;6925;47.816;13.072;2024-01-06T06:30:01;6.60;87.00
13707;DHT22;6925;47.816;13.072;2024-01-06T06:32:29;6.60;86.80
13707;DHT22;6925;47.816;13.072;2024-01-06T06:34:56;6.60;86.90
13707;DHT22;6925;47.816;13.072;2024-01-06T06:37:23;6.60;87.00
13707;DHT22;6925;47.816;13.072;2024-01-06T06:39:50;6.60;87.20
13707;DHT22;6925;47.816;13.072;2024-01-06T06:42:19;6.60;87.40
13707;DHT22;6925;47.816;13.072;2024-01-06T06:44:47;6.50;87.20
13707;DHT22;6925;47.816;13.072;2024-01-06T06:47:14;6.50;86.90
13707;DHT22;6925;47.816;13.072;2024-01-06T06:49:42;6.50;86.60
13707;DHT22;6925;47.816;13.072;2024-01-06T06:52:10;6.50;86.90
13707;DHT22;6925;47.816;13.072;2024-01-06T06:54:44;6.50;87.10
13707;DHT22;6925;47.816;13.072;2024-01-06T06:57:11;6.40;87.20
13707;DHT22;6925;47.816;13.072;2024-01-06T06:59:40;6.50;86.90
13707;DHT22;6925;47.816;13.072;2024-01-06T07:02:08;6.50;87.50
13707;DHT22;6925;47.816;13.072;2024-01-06T07:04:35;6.50;87.10
13707;DHT22;6925;47.816;13.072;2024-01-06T07:07:03;6.50;87.20
13707;DHT22;6925;47.816;13.072;2024-01-06T07:09:30;6.50;87.10
13707;DHT22;6925;47.816;13.072;2024-01-06T07:11:58;6.50;87.60
13707;DHT22;6925;47.816;13.072;2024-01-06T07:14:27;6.50;87.60
13707;DHT22;6925;47.816;13.072;2024-01-06T07:16:56;6.50;87.30
13707;DHT22;6925;47.816;13.072;2024-01-06T07:19:23;6.50;87.50
13707;DHT22;6925;47.816;13.072;2024-01-06T07:21:51;6.50;87.80
13707;DHT22;6925;47.816;13.072;2024-01-06T07:24:21;6.50;87.60
13707;DHT22;6925;47.816;13.072;2024-01-06T07:26:49;6.60;87.70
13707;DHT22;6925;47.816;13.072;2024-01-06T07:29:16;6.60;87.00
13707;DHT22;6925;47.816;13.072;2024-01-06T07:31:43;6.50;87.40
13707;DHT22;6925;47.816;13.072;2024-01-06T07:34:12;6.60;87.60
13707;DHT22;6925;47.816;13.072;2024-01-06T07:36:39;6.50;87.30
13707;DHT22;6925;47.816;13.072;2024-01-06T07:39:07;6.50;87.60
13707;DHT22;6925;47.816;13.072;2024-01-06T07:41:35;6.50;86.90
13707;DHT22;6925;47.816;13.072;2024-01-06T07:44:02;6.50;87.60
13707;DHT22;6925;47.816;13.072;2024-01-06T07:46:29;6.50;87.80
13707;DHT22;6925;47.816;13.072;2024-01-06T07:48:57;6.50;87.60
13707;DHT22;6925;47.816;13.072;2024-01-06T07:51:26;6.50;87.90
13707;DHT22;6925;47.816;13.072;2024-01-06T07:53:53;6.50;87.60
13707;DHT22;6925;47.816;13.072;2024-01-06T07:56:20;6.40;87.60
13707;DHT22;6925;47.816;13.072;2024-01-06T07:58:47;6.40;88.00
13707;DHT22;6925;47.816;13.072;2024-01-06T08:01:14;6.50;87.70
13707;DHT22;6925;47.816;13.072;2024-01-06T08:03:42;6.50;87.60
13707;DHT22;6925;47.816;13.072;2024-01-06T08:06:09;6.50;87.90
13707;DHT22;6925;47.816;13.072;2024-01-06T08:08:37;6.50;88.20
13707;DHT22;6925;47.816;13.072;2024-01-06T08:11:04;6.50;88.60
13707;DHT22;6925;47.816;13.072;2024-01-06T08:13:32;6.50;87.50
13707;DHT22;6925;47.816;13.072;2024-01-06T08:15:59;6.50;87.70
13707;DHT22;6925;47.816;13.072;2024-01-06T08:18:26;6.40;87.50
13707;DHT22;6925;47.816;13.072;2024-01-06T08:20:53;6.40;87.30
13707;DHT22;6925;47.816;13.072;2024-01-06T08:23:20;6.30;87.20
13707;DHT22;6925;47.816;13.072;2024-01-06T08:25:49;6.30;88.20
13707;DHT22;6925;47.816;13.072;2024-01-06T08:28:16;6.30;88.30
13707;DHT22;6925;47.816;13.072;2024-01-06T08:30:44;6.30;88.20
13707;DHT22;6925;47.816;13.072;2024-01-06T08:33:11;6.30;87.30
13707;DHT22;6925;47.816;13.072;2024-01-06T08:35:38;6.30;88.00
13707;DHT22;6925;47.816;13.072;2024-01-06T08:38:06;6.30;87.90
13707;DHT22;6925;47.816;13.072;2024-01-06T08:40:33;6.30;88.00
13707;DHT22;6925;47.816;13.072;2024-01-06T08:43:02;6.30;88.40
13707;DHT22;6925;47.816;13.072;2024-01-06T08:45:29;6.30;88.70
13707;DHT22;6925;47.816;13.072;2024-01-06T08:47:56;6.30;89.10
13707;DHT22;6925;47.816;13.072;2024-01-06T08:50:23;6.30;88.50
13707;DHT22;6925;47.816;13.072;2024-01-06T08:52:50;6.30;88.90
13707;DHT22;6925;47.816;13.072;2024-01-06T08:55:17;6.30;89.10
13707;DHT22;6925;47.816;13.072;2024-01-06T08:57:44;6.30;88.70
13707;DHT22;6925;47.816;13.072;2024-01-06T09:00:14;6.30;88.80
13707;DHT22;6925;47.816;13.072;2024-01-06T09:02:43;6.30;89.60
13707;DHT22;6925;47.816;13.072;2024-01-06T09:05:10;6.30;89.70
13707;DHT22;6925;47.816;13.072;2024-01-06T09:07:37;6.40;89.90
13707;DHT22;6925;47.816;13.072;2024-01-06T09:10:03;6.40;89.70
13707;DHT22;6925;47.816;13.072;2024-01-06T09:12:30;6.50;88.90
13707;DHT22;6925;47.816;13.072;2024-01-06T09:14:57;6.50;88.60
13707;DHT22;6925;47.816;13.072;2024-01-06T09:17:25;6.50;88.80
13707;DHT22;6925;47.816;13.072;2024-01-06T09:19:52;6.50;88.90
13707;DHT22;6925;47.816;13.072;2024-01-06T09:22:20;6.50;89.10
13707;DHT22;6925;47.816;13.072;2024-01-06T09:24:47;6.50;88.70
13707;DHT22;6925;47.816;13.072;2024-01-06T09:27:14;6.40;88.70
13707;DHT22;6925;47.816;13.072;2024-01-06T09:29:41;6.40;89.40
13707;DHT22;6925;47.816;13.072;2024-01-06T09:32:08;6.40;89.80
13707;DHT22;6925;47.816;13.072;2024-01-06T09:34:37;6.40;89.70
13707;DHT22;6925;47.816;13.072;2024-01-06T09:37:04;6.40;89.10
13707;DHT22;6925;47.816;13.072;2024-01-06T09:39:31;6.40;88.90
13707;DHT22;6925;47.816;13.072;2024-01-06T09:41:58;6.40;89.00
13707;DHT22;6925;47.816;13.072;2024-01-06T09:44:25;6.40;89.60
13707;DHT22;6925;47.816;13.072;2024-01-06T09:46:53;6.40;89.90
13707;DHT22;6925;47.816;13.072;2024-01-06T09:49:23;6.40;89.40
13707;DHT22;6925;47.816;13.072;2024-01-06T09:51:53;6.40;88.70
13707;DHT22;6925;47.816;13.072;2024-01-06T09:54:23;6.30;89.30
13707;DHT22;6925;47.816;13.072;2024-01-06T09:56:52;6.30;89.10
13707;DHT22;6925;47.816;13.072;2024-01-06T09:59:21;6.30;88.80
13707;DHT22;6925;47.816;13.072;2024-01-06T10:01:49;6.20;88.80
13707;DHT22;6925;47.816;13.072;2024-01-06T10:04:18;6.20;89.70
13707;DHT22;6925;47.816;13.072;2024-01-06T10:06:45;6.20;89.40
13707;DHT22;6925;47.816;13.072;2024-01-06T10:09:14;6.20;90.00
13707;DHT22;6925;47.816;13.072;2024-01-06T10:11:41;6.20;90.00
13707;DHT22;6925;47.816;13.072;2024-01-06T10:14:08;6.30;89.80
13707;DHT22;6925;47.816;13.072;2024-01-06T10:16:35;6.30;90.00
13707;DHT22;6925;47.816;13.072;2024-01-06T10:19:03;6.30;89.30
13707;DHT22;6925;47.816;13.072;2024-01-06T10:21:32;6.30;89.80
13707;DHT22;6925;47.816;13.072;2024-01-06T10:24:00;6.30;90.00
13707;DHT22;6925;47.816;13.072;2024-01-06T10:26:29;6.40;90.00
13707;DHT22;6925;47.816;13.072;2024-01-06T10:28:57;6.40;89.90
13707;DHT22;6925;47.816;13.072;2024-01-06T10:31:25;6.40;89.80
13707;DHT22;6925;47.816;13.072;2024-01-06T10:33:52;6.50;90.00
13707;DHT22;6925;47.816;13.072;2024-01-06T10:36:19;6.50;89.60
13707;DHT22;6925;47.816;13.072;2024-01-06T10:38:47;6.50;89.50
13707;DHT22;6925;47.816;13.072;2024-01-06T10:41:16;6.50;89.40
13707;DHT22;6925;47.816;13.072;2024-01-06T10:43:45;6.50;89.30
13707;DHT22;6925;47.816;13.072;2024-01-06T10:46:13;6.50;89.60
13707;DHT22;6925;47.816;13.072;2024-01-06T10:48:42;6.50;89.40
13707;DHT22;6925;47.816;13.072;2024-01-06T10:51:11;6.50;89.00
13707;DHT22;6925;47.816;13.072;2024-01-06T10:53:40;6.60;89.80
13707;DHT22;6925;47.816;13.072;2024-01-06T10:56:08;6.60;90.00
13707;DHT22;6925;47.816;13.072;2024-01-06T10:58:36;6.60;89.90
13707;DHT22;6925;47.816;13.072;2024-01-06T11:01:10;6.70;89.60
13707;DHT22;6925;47.816;13.072;2024-01-06T11:03:39;6.70;89.60
13707;DHT22;6925;47.816;13.072;2024-01-06T11:06:06;6.70;89.80
13707;DHT22;6925;47.816;13.072;2024-01-06T11:08:50;6.80;90.10
13707;DHT22;6925;47.816;13.072;2024-01-06T11:11:18;6.80;89.50
13707;DHT22;6925;47.816;13.072;2024-01-06T11:13:46;6.90;89.20
13707;DHT22;6925;47.816;13.072;2024-01-06T11:16:33;6.90;88.60
13707;DHT22;6925;47.816;13.072;2024-01-06T11:19:01;6.90;88.80
13707;DHT22;6925;47.816;13.072;2024-01-06T11:21:33;6.90;88.80
13707;DHT22;6925;47.816;13.072;2024-01-06T11:24:14;6.80;87.40
13707;DHT22;6925;47.816;13.072;2024-01-06T11:26:49;6.80;88.30
13707;DHT22;6925;47.816;13.072;2024-01-06T11:29:17;6.80;88.70
13707;DHT22;6925;47.816;13.072;2024-01-06T11:32:25;6.80;89.30
13707;DHT22;6925;47.816;13.072;2024-01-06T11:34:53;6.80;89.30
13707;DHT22;6925;47.816;13.072;2024-01-06T11:37:33;6.80;89.20
13707;DHT22;6925;47.816;13.072;2024-01-06T11:40:02;6.80;89.20
13707;DHT22;6925;47.816;13.072;2024-01-06T11:42:32;6.90;89.00
13707;DHT22;6925;47.816;13.072;2024-01-06T11:45:05;6.90;88.50
13707;DHT22;6925;47.816;13.072;2024-01-06T11:47:34;6.80;87.50
13707;DHT22;6925;47.816;13.072;2024-01-06T11:50:02;6.70;88.80
13707;DHT22;6925;47.816;13.072;2024-01-06T11:52:30;6.60;89.00
13707;DHT22;6925;47.816;13.072;2024-01-06T11:54:57;6.60;88.20
13707;DHT22;6925;47.816;13.072;2024-01-06T11:57:25;6.60;88.50
13707;DHT22;6925;47.816;13.072;2024-01-06T11:59:52;6.60;89.00
13707;DHT22;6925;47.816;13.072;2024-01-06T12:02:19;6.60;88.40
13707;DHT22;6925;47.816;13.072;2024-01-06T12:04:50;6.50;88.10
13707;DHT22;6925;47.816;13.072;2024-01-06T12:07:18;6.50;87.70
13707;DHT22;6925;47.816;13.072;2024-01-06T12:09:45;6.40;88.10
13707;DHT22;6925;47.816;13.072;2024-01-06T12:12:15;6.30;88.40
13707;DHT22;6925;47.816;13.072;2024-01-06T12:14:43;6.30;88.90
13707;DHT22;6925;47.816;13.072;2024-01-06T12:17:11;6.40;89.80
13707;DHT22;6925;47.816;13.072;2024-01-06T12:19:39;6.50;89.90
13707;DHT22;6925;47.816;13.072;2024-01-06T12:22:12;6.50;89.00
13707;DHT22;6925;47.816;13.072;2024-01-06T12:24:40;6.50;88.20
13707;DHT22;6925;47.816;13.072;2024-01-06T12:27:08;6.60;88.30
13707;DHT22;6925;47.816;13.072;2024-01-06T12:29:38;6.60;88.50
13707;DHT22;6925;47.816;13.072;2024-01-06T12:32:06;6.60;88.60
13707;DHT22;6925;47.816;13.072;2024-01-06T12:34:34;6.60;88.50
13707;DHT22;6925;47.816;13.072;2024-01-06T12:37:02;6.60;88.50
13707;DHT22;6925;47.816;13.072;2024-01-06T12:39:31;6.60;88.30
13707;DHT22;6925;47.816;13.072;2024-01-06T12:41:58;6.60;88.80
13707;DHT22;6925;47.816;13.072;2024-01-06T12:44:26;6.60;88.70
13707;DHT22;6925;47.816;13.072;2024-01-06T12:46:54;6.60;88.60
13707;DHT22;6925;47.816;13.072;2024-01-06T12:49:21;6.50;88.10
13707;DHT22;6925;47.816;13.072;2024-01-06T12:51:48;6.50;87.40
13707;DHT22;6925;47.816;13.072;2024-01-06T12:54:16;6.40;87.60
13707;DHT22;6925;47.816;13.072;2024-01-06T12:56:44;6.30;87.60
13707;DHT22;6925;47.816;13.072;2024-01-06T12:59:12;6.30;86.90
13707;DHT22;6925;47.816;13.072;2024-01-06T13:01:39;6.20;86.90
13707;DHT22;6925;47.816;13.072;2024-01-06T13:04:06;6.20;88.20
13707;DHT22;6925;47.816;13.072;2024-01-06T13:06:33;6.20;88.60
13707;DHT22;6925;47.816;13.072;2024-01-06T13:09:00;6.20;88.40
13707;DHT22;6925;47.816;13.072;2024-01-06T13:11:32;6.20;88.20
13707;DHT22;6925;47.816;13.072;2024-01-06T13:14:01;6.20;88.20
13707;DHT22;6925;47.816;13.072;2024-01-06T13:16:29;6.30;88.30
13707;DHT22;6925;47.816;13.072;2024-01-06T13:18:56;6.30;88.30
13707;DHT22;6925;47.816;13.072;2024-01-06T13:21:23;6.30;87.50
13707;DHT22;6925;47.816;13.072;2024-01-06T13:23:50;6.20;87.40
13707;DHT22;6925;47.816;13.072;2024-01-06T13:26:17;6.10;88.10
13707;DHT22;6925;47.816;13.072;2024-01-06T13:28:44;6.10;88.20
13707;DHT22;6925;47.816;13.072;2024-01-06T13:31:13;6.20;88.60
13707;DHT22;6925;47.816;13.072;2024-01-06T13:33:40;6.20;88.30
13707;DHT22;6925;47.816;13.072;2024-01-06T13:36:07;6.20;88.00
13707;DHT22;6925;47.816;13.072;2024-01-06T13:38:34;6.30;88.70
13707;DHT22;6925;47.816;13.072;2024-01-06T13:41:02;6.20;87.80
13707;DHT22;6925;47.816;13.072;2024-01-06T13:43:29;6.20;87.60
13707;DHT22;6925;47.816;13.072;2024-01-06T13:45:57;6.20;88.20
13707;DHT22;6925;47.816;13.072;2024-01-06T13:48:26;6.30;88.20
13707;DHT22;6925;47.816;13.072;2024-01-06T13:50:54;6.30;88.00
13707;DHT22;6925;47.816;13.072;2024-01-06T13:53:22;6.30;87.70
13707;DHT22;6925;47.816;13.072;2024-01-06T13:55:49;6.30;87.10
13707;DHT22;6925;47.816;13.072;2024-01-06T13:58:16;6.20;86.90
13707;DHT22;6925;47.816;13.072;2024-01-06T14:00:43;6.20;87.70
13707;DHT22;6925;47.816;13.072;2024-01-06T14:03:10;6.20;88.00
13707;DHT22;6925;47.816;13.072;2024-01-06T14:05:39;6.20;87.80
13707;DHT22;6925;47.816;13.072;2024-01-06T14:08:06;6.20;88.50
13707;DHT22;6925;47.816;13.072;2024-01-06T14:10:33;6.20;88.30
13707;DHT22;6925;47.816;13.072;2024-01-06T14:13:00;6.10;87.00
13707;DHT22;6925;47.816;13.072;2024-01-06T14:15:27;6.10;87.60
13707;DHT22;6925;47.816;13.072;2024-01-06T14:17:56;6.10;87.70
13707;DHT22;6925;47.816;13.072;2024-01-06T14:20:25;6.10;87.90
13707;DHT22;6925;47.816;13.072;2024-01-06T14:22:55;6.00;87.50
13707;DHT22;6925;47.816;13.072;2024-01-06T14:25:22;6.00;87.50
13707;DHT22;6925;47.816;13.072;2024-01-06T14:27:49;6.00;87.50
13707;DHT22;6925;47.816;13.072;2024-01-06T14:30:16;6.00;87.90
13707;DHT22;6925;47.816;13.072;2024-01-06T14:32:43;5.90;88.10
13707;DHT22;6925;47.816;13.072;2024-01-06T14:35:10;5.90;88.00
13707;DHT22;6925;47.816;13.072;2024-01-06T14:37:39;5.90;88.10
13707;DHT22;6925;47.816;13.072;2024-01-06T14:40:09;5.90;87.80
13707;DHT22;6925;47.816;13.072;2024-01-06T14:42:37;6.00;87.50
13707;DHT22;6925;47.816;13.072;2024-01-06T14:45:05;6.00;87.10
13707;DHT22;6925;47.816;13.072;2024-01-06T14:47:33;6.00;87.10
13707;DHT22;6925;47.816;13.072;2024-01-06T14:50:01;5.90;86.80
13707;DHT22;6925;47.816;13.072;2024-01-06T14:52:28;5.90;86.70
13707;DHT22;6925;47.816;13.072;2024-01-06T14:54:55;5.90;86.50
13707;DHT22;6925;47.816;13.072;2024-01-06T14:57:23;5.90;86.50
13707;DHT22;6925;47.816;13.072;2024-01-06T14:59:51;5.90;86.60
13707;DHT22;6925;47.816;13.072;2024-01-06T15:02:18;5.80;86.50
13707;DHT22;6925;47.816;13.072;2024-01-06T15:04:45;5.80;86.40
13707;DHT22;6925;47.816;13.072;2024-01-06T15:07:12;5.80;86.60
13707;DHT22;6925;47.816;13.072;2024-01-06T15:09:39;5.80;86.60
13707;DHT22;6925;47.816;13.072;2024-01-06T15:12:07;5.80;86.30
13707;DHT22;6925;47.816;13.072;2024-01-06T15:14:36;5.70;86.50
13707;DHT22;6925;47.816;13.072;2024-01-06T15:17:03;5.70;87.00
13707;DHT22;6925;47.816;13.072;2024-01-06T15:19:30;5.70;87.30
13707;DHT22;6925;47.816;13.072;2024-01-06T15:21:59;5.60;86.70
13707;DHT22;6925;47.816;13.072;2024-01-06T15:24:26;5.60;87.10
13707;DHT22;6925;47.816;13.072;2024-01-06T15:26:53;5.60;87.10
13707;DHT22;6925;47.816;13.072;2024-01-06T15:29:20;5.60;87.30
13707;DHT22;6925;47.816;13.072;2024-01-06T15:31:49;5.60;87.20
13707;DHT22;6925;47.816;13.072;2024-01-06T15:34:18;5.60;86.80
13707;DHT22;6925;47.816;13.072;2024-01-06T15:36:45;5.60;87.00
13707;DHT22;6925;47.816;13.072;2024-01-06T15:39:13;5.60;87.40
13707;DHT22;6925;47.816;13.072;2024-01-06T15:41:41;5.60;87.50
13707;DHT22;6925;47.816;13.072;2024-01-06T15:44:08;5.60;87.60
13707;DHT22;6925;47.816;13.072;2024-01-06T15:46:35;5.60;87.80
13707;DHT22;6925;47.816;13.072;2024-01-06T15:49:04;5.60;87.80